الصفحة الرئيسية
METAR-TAF:

METAR-TAF

مطار :

ييكاتيرينبرغ, روسيا

دائرة عرض: 56-50N, خط طول: 060-38E, ارتفاع: 237 متر

مراقبة الطقس الحالي

تاريخ ووقت الإصدار 12ساعات و 26 دقيقة قبل الساعة 05:00UTC
ريح 8 عقدة من الغرب, الاتجاه يتراوح بين الجنوب الغربي و الشمال الغربي
درجة الحرارة 16°درجة مئوية
الرطوبة 68%
ضغط 1011 hPa
الرؤية 10 كم أو أكثر
الغيوم لا تقل 1500 م ولا وجود لمزنة ركامية السحاب الأسود

METAR: USSS 210500Z 28004MPS 230V310 CAVOK 16/10 Q1011 R26R/010060 R26L/010060 NOSIG RMK QFE737/0983

زمن: 22:26 (17:26 UTC)

توقعات

تاريخ ووقت الإصدار 12ساعات و 29 دقيقة قبل الساعة 04:57UTC
التوقعات صالحة من21 الساعة 06 UTC إلى 22 الساعة 06 UTC
ريح 6 عقدة من الغرب/الشمال الغربي تتزايد حتى 19 عقدة
الرؤية 10 كم أو أكثر
غيوم متفرقة على ارتفاع 2000 قدم, مزنة ركامية.
أصبح
من 21 الساعة 16 UTC إلى 21 الساعة 18 UTC
ريح 6 عقدة من الجنوب/الجنوب الغربي
الرؤية: 6000 متر
الضباب الضحلة
أصبح
من 22 الساعة 03 UTC إلى 22 الساعة 05 UTC
الرؤية 10 كم أو أكثر

TAF: USSS 210457Z 2106/2206 29003G10MPS 9999 SCT020CB BECMG 2116/2118 20003MPS 6000 MIFG BECMG 2203/2205 9999 NSW

أرصاد الطقس والتوقعات من أكثر من 4000 مطار (تقارير الطقس للمطار METAR والتنبؤ بالطقس بالمطارTAF).

المحطات المتاحة هي النقط الصفراء والحمراء على الخريطة.

حرك المؤشر فوق النقطة لمعرفة اسم المحطة.

ثم انقر لمعرفة أرصاد وتوقعات الطقس.

لتغيير الخارطة: اضغط على الأزرار الخضراء مع رمز الصليب الأسود للتكبير. على الزر الأخضر مع شرطة للتصغير، أو على الأسهم الخضراء للخرائط المجاورة.


METAR-TAF: